Historyczne dane pomiarowe

Dodano dane terminowe – wersja testowa.

Dane z okresu 1951-2019

Wersja bazy: 1.34 [2019-03-16, lista zmian], aktualizacja planowana na 2019-04-15

Dane meteo z obszaru Polski uzyskane na podstawie danych udostępnionych przez Instytut Meteorologii i Gospodarki Wodnej – Państwowy Instytut Badawczy.

 

Wybierz Datę:    

       

TemperaturaWilgotnośćWiatrCiśnienieOpadyŚniegCzas trwania zjawisk
 Stacja t tx tn tng RH VA  wxwx mslp ppp RRR   cm mm wxwxwxwxwxwxwx
2019-06-22 18.1 21.9 14.1- 85.3- 5.3 2.3---- 0.1------------
2019-06-21 19.8 25.1 15.8- 83.0- 6.7 1.3---- 2.1------------
2019-06-20 20.5 25.2 15.9- 73.0- 6.7 2.0---- 2.5------------
2019-06-19 20.3 27.9 13.1- 72.8- 5.0 2.0---- 2.9------------
2019-06-18 17.5 23.0 9.4- 73.3- 4.0 2.3---- 0.0------------
2019-06-17 17.2 20.1 15.1- 80.8- 6.3 1.7---- 0.2------------
2019-06-16 21.2 28.0 14.6- 71.0- 5.0 2.0---- 3.0------------
2019-06-15 24.2 32.7 14.9- 64.0- 3.3 2.0---- 0.0------------
2019-06-14 22.6 28.0 16.1- 75.0- 6.0 2.0---- 0.0------------
2019-06-13 23.3 31.8 13.4- 60.3- 3.0 1.7---- 0.0------------
2019-06-12 22.5 30.9 12.7- 55.3- 2.3 3.0---- 0.0------------
2019-06-11 22.5 30.0 12.7- 53.5- 1.7 3.3---- 0.0------------
2019-06-10 22.1 30.3 12.8- 59.8- 2.0 2.7---- 0.0------------
2019-06-09 18.6 24.2 11.5- 63.8- 2.7 2.7---- 0.0------------
2019-06-08 19.4 27.2 11.9- 70.5- 2.7 1.7---- 0.0------------
2019-06-07 19.7 25.2 13.4- 73.0- 6.0 1.3---- 0.0------------
2019-06-06 18.5 24.4 10.4- 65.5- 3.7 2.3---- 0.0------------
2019-06-05 19.1 24.9 11.0- 74.8- 4.0 3.0---- 0.3------------
2019-06-04 18.9 25.7 10.4- 65.0- 2.7 3.0---- 0.0------------
2019-06-03 18.0 24.5 9.6- 66.8- 2.3 2.7---- 0.0------------
2019-06-02 17.3 23.2 10.8- 71.3- 2.7 2.0---- 0.0------------
2019-06-01 14.6 21.5 7.0- 76.3- 3.0 1.7---- 1.1------------
2019-05-31 12.7 19.1 6.9- 79.5- 7.0 1.3---- 0.0------------
2019-05-30 8.6 10.4 7.2- 92.8- 8.0 2.7---- 17.8------------
2019-05-29 12.1 16.7 9.7- 95.5- 8.0 2.0---- 3.0------------
2019-05-28 16.0 21.0 11.2- 83.0- 6.3 2.3---- 1.1------------
2019-05-27 16.4 22.6 8.5- 73.5- 5.7 2.0---- 1.4------------
2019-05-26 15.9 21.2 10.0- 71.8- 5.0 1.3---- 0.1------------
2019-05-25 13.6 20.1 7.4- 80.5- 5.3 2.3---- 0.0------------
2019-05-24 10.5 11.6 9.1- 94.5- 8.0 0.7---- 4.4------------
2019-05-23 10.9 12.7 9.9- 93.8- 8.0 2.3---- 19.0------------
2019-05-22 13.3 17.3 11.4- 88.0- 8.0 3.0---- 28.7------------
2019-05-21 12.2 17.6 8.0- 90.0- 8.0 2.3---- 38.7------------
2019-05-20 16.9 20.6 11.4- 56.8- 6.0 3.0---- 0.0------------
2019-05-19 14.8 22.9 6.1- 79.0- 4.3 2.0---- 0.0------------
2019-05-18 13.4 21.9 6.1- 75.8- 4.3 2.0---- 0.0------------
2019-05-17 12.6 18.5 7.7- 88.0- 6.3 1.7---- 0.4------------
2019-05-16 11.7 16.7 7.7- 85.3- 6.0 2.7---- 0.0------------
2019-05-15 6.6 8.4 4.3- 97.0- 8.0 0.7---- 6.4------------
2019-05-14 2.8 5.6 0.0- 95.3- 8.0 1.0---- 16.7-- 3---------
2019-05-13 6.1 8.4 5.0- 87.3- 8.0 3.7---- 6.5------------
2019-05-12 10.8 17.0 6.1- 88.0- 8.0 2.3---- 6.0------------
2019-05-11 12.0 18.0 6.8- 73.3- 4.7 2.0---- 0.0------------
2019-05-10 10.4 14.7 6.5- 87.5- 5.3 3.3---- 6.6------------
2019-05-09 6.5 11.0 1.8- 89.0- 8.0 2.0---- 5.9------------
2019-05-08 6.9 14.3 -1.6- 72.0- 3.0 1.3---- 0.5------------
2019-05-07 6.8 10.4 4.3- 65.5- 7.0 2.7---- 0.0------------
2019-05-06 4.9 7.2 2.5- 80.8- 8.0 2.7---- 0.0------------
2019-05-05 5.2 12.3 1.7- 94.3- 8.0 2.3---- 10.4------------
2019-05-04 8.4 14.6 0.8- 73.0- 5.3 1.3---- 1.0------------
2019-05-03 8.9 14.9 5.9- 91.0- 8.0 2.7---- 5.0------------
2019-05-02 12.6 17.6 6.9- 72.5- 4.0 3.7---- 0.0------------
2019-05-01 10.8 15.3 6.3- 68.5- 5.3 1.3---- 3.7------------
2019-04-30 9.6 10.4 8.4- 93.8- 8.0 2.3---- 7.3------------
2019-04-29 8.8 10.7 6.9- 94.3- 8.0 1.7---- 3.4------------
2019-04-28 8.4 10.2 7.2- 91.5- 8.0 2.0---- 26.9------------
2019-04-27 13.1 21.4 9.3- 90.0- 8.0 2.7---- 20.9------------
2019-04-26 16.2 25.3 4.9- 61.5- 5.0 4.0---- 1.1------------
2019-04-25 15.7 23.6 6.9- 60.8- 2.7 2.7---- 0.0------------
2019-04-24 12.1 17.1 5.8- 63.3- 5.7 4.7---- 0.0------------
143.8 ms

 

Źródłem pochodzenia danych jest Instytut Meteorologii i Gospodarki Wodnej – Państwowy Instytut Badawczy. Dane Instytutu Meteorologii i Gospodarki Wodnej – Państwowego Instytutu Badawczego zostały przetworzone.

Dane źródłowe można odnaleźć na stronie https://dane.imgw.pl